sensor_id;sensor_type;location;lat;lon;timestamp;pressure;altitude;pressure_sealevel;temperature;humidity
23619;BME280;18207;32.078;34.818;2023-04-28T00:00:22;100333.28;;;27.57;32.21
23619;BME280;18207;32.078;34.818;2023-04-28T00:02:55;100321.97;;;27.54;32.25
23619;BME280;18207;32.078;34.818;2023-04-28T00:05:29;100332.00;;;27.51;32.13
23619;BME280;18207;32.078;34.818;2023-04-28T00:08:05;100338.88;;;27.50;32.40
23619;BME280;18207;32.078;34.818;2023-04-28T00:10:39;100342.47;;;27.47;32.28
23619;BME280;18207;32.078;34.818;2023-04-28T00:13:13;100340.84;;;27.46;32.39
23619;BME280;18207;32.078;34.818;2023-04-28T00:15:45;100344.44;;;27.43;31.89
23619;BME280;18207;32.078;34.818;2023-04-28T00:18:17;100351.31;;;27.42;32.24
23619;BME280;18207;32.078;34.818;2023-04-28T00:20:54;100360.97;;;27.41;32.40
23619;BME280;18207;32.078;34.818;2023-04-28T00:23:30;100354.09;;;27.39;32.54
23619;BME280;18207;32.078;34.818;2023-04-28T00:26:05;100352.09;;;27.39;32.58
23619;BME280;18207;32.078;34.818;2023-04-28T00:28:38;100352.47;;;27.38;32.63
23619;BME280;18207;32.078;34.818;2023-04-28T00:31:15;100353.31;;;27.38;32.63
23619;BME280;18207;32.078;34.818;2023-04-28T00:33:58;100364.97;;;27.37;32.75
23619;BME280;18207;32.078;34.818;2023-04-28T00:36:33;100361.34;;;27.36;32.69
23619;BME280;18207;32.078;34.818;2023-04-28T00:39:04;100356.50;;;27.37;32.93
23619;BME280;18207;32.078;34.818;2023-04-28T00:41:44;100346.03;;;27.37;32.94
23619;BME280;18207;32.078;34.818;2023-04-28T00:44:26;100362.13;;;27.37;33.01
23619;BME280;18207;32.078;34.818;2023-04-28T00:46:59;100366.59;;;27.38;33.35
23619;BME280;18207;32.078;34.818;2023-04-28T00:49:31;100367.41;;;27.38;33.45
23619;BME280;18207;32.078;34.818;2023-04-28T00:52:05;100366.22;;;27.39;33.57
23619;BME280;18207;32.078;34.818;2023-04-28T00:54:36;100371.88;;;27.39;33.73
23619;BME280;18207;32.078;34.818;2023-04-28T00:57:09;100372.25;;;27.41;33.80
23619;BME280;18207;32.078;34.818;2023-04-28T00:59:40;100371.47;;;27.41;33.98
23619;BME280;18207;32.078;34.818;2023-04-28T01:02:10;100368.25;;;27.42;33.78
23619;BME280;18207;32.078;34.818;2023-04-28T01:04:44;100375.50;;;27.43;34.25
23619;BME280;18207;32.078;34.818;2023-04-28T01:07:15;100377.13;;;27.44;34.06
23619;BME280;18207;32.078;34.818;2023-04-28T01:09:46;100378.75;;;27.45;34.43
23619;BME280;18207;32.078;34.818;2023-04-28T01:12:18;100381.56;;;27.45;34.61
23619;BME280;18207;32.078;34.818;2023-04-28T01:14:48;100377.13;;;27.44;34.83
23619;BME280;18207;32.078;34.818;2023-04-28T01:17:19;100388.06;;;27.46;34.60
23619;BME280;18207;32.078;34.818;2023-04-28T01:19:49;100383.19;;;27.46;34.82
23619;BME280;18207;32.078;34.818;2023-04-28T01:22:20;100392.47;;;27.47;34.94
23619;BME280;18207;32.078;34.818;2023-04-28T01:24:52;100388.84;;;27.46;35.02
23619;BME280;18207;32.078;34.818;2023-04-28T01:27:23;100394.50;;;27.46;35.11
23619;BME280;18207;32.078;34.818;2023-04-28T01:29:53;100398.13;;;27.47;35.18
23619;BME280;18207;32.078;34.818;2023-04-28T01:32:24;100393.69;;;27.46;35.35
23619;BME280;18207;32.078;34.818;2023-04-28T01:34:54;100392.47;;;27.47;35.42
23619;BME280;18207;32.078;34.818;2023-04-28T01:37:24;100392.47;;;27.47;35.50
23619;BME280;18207;32.078;34.818;2023-04-28T01:39:57;100392.09;;;27.48;35.55
23619;BME280;18207;32.078;34.818;2023-04-28T01:42:27;100383.63;;;27.48;35.73
23619;BME280;18207;32.078;34.818;2023-04-28T01:44:57;100386.03;;;27.46;35.77
23619;BME280;18207;32.078;34.818;2023-04-28T01:47:27;100389.66;;;27.47;35.81
23619;BME280;18207;32.078;34.818;2023-04-28T01:49:58;100395.28;;;27.47;35.83
23619;BME280;18207;32.078;34.818;2023-04-28T01:52:28;100388.84;;;27.46;35.91
23619;BME280;18207;32.078;34.818;2023-04-28T01:55:01;100388.84;;;27.46;36.10
23619;BME280;18207;32.078;34.818;2023-04-28T01:57:31;100390.88;;;27.46;36.19
23619;BME280;18207;32.078;34.818;2023-04-28T02:00:03;100394.50;;;27.46;35.91
23619;BME280;18207;32.078;34.818;2023-04-28T02:02:33;100392.47;;;27.47;36.23
23619;BME280;18207;32.078;34.818;2023-04-28T02:05:05;100396.13;;;27.47;36.39
23619;BME280;18207;32.078;34.818;2023-04-28T02:07:36;100399.75;;;27.48;36.44
23619;BME280;18207;32.078;34.818;2023-04-28T02:10:09;100394.09;;;27.48;36.56
23619;BME280;18207;32.078;34.818;2023-04-28T02:12:39;100391.28;;;27.48;36.60
23619;BME280;18207;32.078;34.818;2023-04-28T02:15:10;100385.63;;;27.48;36.53
23619;BME280;18207;32.078;34.818;2023-04-28T02:17:41;100400.94;;;27.47;36.50
23619;BME280;18207;32.078;34.818;2023-04-28T02:20:12;100396.13;;;27.47;36.61
23619;BME280;18207;32.078;34.818;2023-04-28T02:22:42;100394.50;;;27.46;36.59
23619;BME280;18207;32.078;34.818;2023-04-28T02:25:15;100392.88;;;27.45;36.59
23619;BME280;18207;32.078;34.818;2023-04-28T02:27:44;100396.91;;;27.44;36.69
23619;BME280;18207;32.078;34.818;2023-04-28T02:30:15;100389.63;;;27.43;36.81
23619;BME280;18207;32.078;34.818;2023-04-28T02:32:45;100389.19;;;27.41;36.80
23619;BME280;18207;32.078;34.818;2023-04-28T02:35:15;100396.88;;;27.41;36.86
23619;BME280;18207;32.078;34.818;2023-04-28T02:37:46;100391.63;;;27.39;36.85
23619;BME280;18207;32.078;34.818;2023-04-28T02:40:18;100391.63;;;27.39;37.02
23619;BME280;18207;32.078;34.818;2023-04-28T02:42:48;100388.38;;;27.37;37.05
23619;BME280;18207;32.078;34.818;2023-04-28T02:45:18;100388.78;;;27.36;37.08
23619;BME280;18207;32.078;34.818;2023-04-28T02:47:49;100385.13;;;27.35;37.15
23619;BME280;18207;32.078;34.818;2023-04-28T02:50:19;100393.59;;;27.35;37.07
23619;BME280;18207;32.078;34.818;2023-04-28T02:52:49;100399.22;;;27.35;37.01
23619;BME280;18207;32.078;34.818;2023-04-28T02:55:21;100407.69;;;27.35;37.02
23619;BME280;18207;32.078;34.818;2023-04-28T02:57:51;100412.91;;;27.33;36.98
23619;BME280;18207;32.078;34.818;2023-04-28T03:00:22;100414.13;;;27.32;37.10
23619;BME280;18207;32.078;34.818;2023-04-28T03:02:52;100425.81;;;27.31;36.95
23619;BME280;18207;32.078;34.818;2023-04-28T03:05:22;100426.22;;;27.29;37.00
23619;BME280;18207;32.078;34.818;2023-04-28T03:07:53;100427.41;;;27.28;36.94
23619;BME280;18207;32.078;34.818;2023-04-28T03:10:25;100424.94;;;27.27;36.90
23619;BME280;18207;32.078;34.818;2023-04-28T03:12:56;100427.38;;;27.25;36.77
23619;BME280;18207;32.078;34.818;2023-04-28T03:15:26;100419.28;;;27.23;36.74
23619;BME280;18207;32.078;34.818;2023-04-28T03:17:58;100412.41;;;27.21;36.84
23619;BME280;18207;32.078;34.818;2023-04-28T03:20:28;100428.91;;;27.19;36.78
23619;BME280;18207;32.078;34.818;2023-04-28T03:22:59;100435.34;;;27.16;36.86
23619;BME280;18207;32.078;34.818;2023-04-28T03:25:33;100430.91;;;27.15;36.86
23619;BME280;18207;32.078;34.818;2023-04-28T03:28:03;100440.94;;;27.12;36.93
23619;BME280;18207;32.078;34.818;2023-04-28T03:30:34;100446.16;;;27.10;36.75
23619;BME280;18207;32.078;34.818;2023-04-28T03:33:04;100435.25;;;27.09;36.82
23619;BME280;18207;32.078;34.818;2023-04-28T03:35:35;100437.63;;;27.07;36.77
23619;BME280;18207;32.078;34.818;2023-04-28T03:38:05;100440.06;;;27.05;36.81
23619;BME280;18207;32.078;34.818;2023-04-28T03:40:38;100451.72;;;27.03;36.78
23619;BME280;18207;32.078;34.818;2023-04-28T03:43:08;100454.13;;;27.01;36.84
23619;BME280;18207;32.078;34.818;2023-04-28T03:45:39;100455.28;;;27.00;37.06
23619;BME280;18207;32.078;34.818;2023-04-28T03:48:09;100462.59;;;27.01;36.95
23619;BME280;18207;32.078;34.818;2023-04-28T03:50:39;100468.25;;;27.01;37.01
23619;BME280;18207;32.078;34.818;2023-04-28T03:53:09;100468.56;;;27.00;37.06
23619;BME280;18207;32.078;34.818;2023-04-28T03:55:41;100462.13;;;26.99;36.79
23619;BME280;18207;32.078;34.818;2023-04-28T03:58:11;100468.13;;;26.98;36.91
23619;BME280;18207;32.078;34.818;2023-04-28T04:00:42;100472.97;;;26.97;36.81
23619;BME280;18207;32.078;34.818;2023-04-28T04:03:12;100468.94;;;26.95;37.07
23619;BME280;18207;32.078;34.818;2023-04-28T04:05:43;100476.56;;;26.94;37.05
23619;BME280;18207;32.078;34.818;2023-04-28T04:08:14;100478.19;;;26.95;37.09
23619;BME280;18207;32.078;34.818;2023-04-28T04:10:47;100480.22;;;26.95;37.29
23619;BME280;18207;32.078;34.818;2023-04-28T04:13:17;100487.84;;;26.94;37.21
23619;BME280;18207;32.078;34.818;2023-04-28T04:15:48;100482.22;;;26.94;37.25
23619;BME280;18207;32.078;34.818;2023-04-28T04:18:19;100488.69;;;26.95;37.33
23619;BME280;18207;32.078;34.818;2023-04-28T04:20:49;100487.47;;;26.96;37.46
23619;BME280;18207;32.078;34.818;2023-04-28T04:23:21;100488.69;;;26.95;37.53
23619;BME280;18207;32.078;34.818;2023-04-28T04:25:53;100487.47;;;26.96;37.56
23619;BME280;18207;32.078;34.818;2023-04-28T04:28:23;100493.13;;;26.96;37.59
23619;BME280;18207;32.078;34.818;2023-04-28T04:30:53;100492.72;;;26.97;37.72
23619;BME280;18207;32.078;34.818;2023-04-28T04:33:24;100494.34;;;26.98;37.73
23619;BME280;18207;32.078;34.818;2023-04-28T04:35:55;100500.00;;;26.98;37.96
23619;BME280;18207;32.078;34.818;2023-04-28T04:38:25;100503.25;;;27.00;37.97
23619;BME280;18207;32.078;34.818;2023-04-28T04:40:57;100500.88;;;27.02;38.12
23619;BME280;18207;32.078;34.818;2023-04-28T04:43:28;100502.13;;;27.05;38.26
23619;BME280;18207;32.078;34.818;2023-04-28T04:45:58;100506.56;;;27.06;38.24
23619;BME280;18207;32.078;34.818;2023-04-28T04:48:31;100501.34;;;27.08;38.31
23619;BME280;18207;32.078;34.818;2023-04-28T04:51:01;100507.81;;;27.08;38.47
23619;BME280;18207;32.078;34.818;2023-04-28T04:53:30;100512.69;;;27.11;38.74
23619;BME280;18207;32.078;34.818;2023-04-28T04:56:02;100510.28;;;27.13;38.56
23619;BME280;18207;32.078;34.818;2023-04-28T04:58:33;100515.56;;;27.15;38.56
23619;BME280;18207;32.078;34.818;2023-04-28T05:01:03;100516.38;;;27.19;38.73
23619;BME280;18207;32.078;34.818;2023-04-28T05:03:33;100512.78;;;27.22;38.77
23619;BME280;18207;32.078;34.818;2023-04-28T05:06:04;100503.13;;;27.23;38.70
23619;BME280;18207;32.078;34.818;2023-04-28T05:08:34;100509.25;;;27.28;38.90
23619;BME280;18207;32.078;34.818;2023-04-28T05:11:07;100513.72;;;27.33;39.00
23619;BME280;18207;32.078;34.818;2023-04-28T05:13:38;100514.97;;;27.35;39.01
23619;BME280;18207;32.078;34.818;2023-04-28T05:16:08;100507.34;;;27.39;39.11
23619;BME280;18207;32.078;34.818;2023-04-28T05:18:38;100509.00;;;27.44;39.01
23619;BME280;18207;32.078;34.818;2023-04-28T05:21:08;100516.69;;;27.47;39.14
23619;BME280;18207;32.078;34.818;2023-04-28T05:23:39;100513.09;;;27.50;39.09
23619;BME280;18207;32.078;34.818;2023-04-28T05:26:11;100515.16;;;27.53;38.86
23619;BME280;18207;32.078;34.818;2023-04-28T05:28:42;100518.41;;;27.55;39.10
23619;BME280;18207;32.078;34.818;2023-04-28T05:31:13;100518.44;;;27.58;39.28
23619;BME280;18207;32.078;34.818;2023-04-28T05:33:43;100522.53;;;27.64;39.04
23619;BME280;18207;32.078;34.818;2023-04-28T05:36:14;100520.94;;;27.67;39.19
23619;BME280;18207;32.078;34.818;2023-04-28T05:38:45;100531.06;;;27.71;39.28
23619;BME280;18207;32.078;34.818;2023-04-28T05:41:17;100534.75;;;27.75;39.31
23619;BME280;18207;32.078;34.818;2023-04-28T05:43:47;100532.78;;;27.79;39.37
23619;BME280;18207;32.078;34.818;2023-04-28T05:46:18;100534.03;;;27.85;39.51
23619;BME280;18207;32.078;34.818;2023-04-28T05:48:57;100531.69;;;27.90;39.26
23619;BME280;18207;32.078;34.818;2023-04-28T05:51:27;100529.31;;;27.96;39.27
23619;BME280;18207;32.078;34.818;2023-04-28T05:53:57;100531.75;;;28.01;39.40
23619;BME280;18207;32.078;34.818;2023-04-28T05:56:30;100535.03;;;28.06;39.44
23619;BME280;18207;32.078;34.818;2023-04-28T05:59:00;100535.47;;;28.12;39.40
23619;BME280;18207;32.078;34.818;2023-04-28T06:01:32;100539.16;;;28.16;39.47
23619;BME280;18207;32.078;34.818;2023-04-28T06:04:01;100537.16;;;28.20;39.13
23619;BME280;18207;32.078;34.818;2023-04-28T06:06:32;100544.88;;;28.23;39.32
23619;BME280;18207;32.078;34.818;2023-04-28T06:09:03;100546.09;;;28.25;39.34
23619;BME280;18207;32.078;34.818;2023-04-28T06:11:35;100542.50;;;28.28;39.18
23619;BME280;18207;32.078;34.818;2023-04-28T06:14:06;100549.00;;;28.29;39.03
23619;BME280;18207;32.078;34.818;2023-04-28T06:16:36;100555.88;;;28.31;39.24
23619;BME280;18207;32.078;34.818;2023-04-28T06:19:06;100554.66;;;28.32;39.42
23619;BME280;18207;32.078;34.818;2023-04-28T06:21:37;100566.38;;;28.34;39.25
23619;BME280;18207;32.078;34.818;2023-04-28T06:24:08;100560.34;;;28.36;39.05
23619;BME280;18207;32.078;34.818;2023-04-28T06:26:41;100571.25;;;28.37;39.25
23619;BME280;18207;32.078;34.818;2023-04-28T06:29:12;100572.06;;;28.38;39.15
23619;BME280;18207;32.078;34.818;2023-04-28T06:31:43;100577.72;;;28.38;39.06
23619;BME280;18207;32.078;34.818;2023-04-28T06:34:13;100576.09;;;28.37;39.07
23619;BME280;18207;32.078;34.818;2023-04-28T06:36:44;100575.28;;;28.36;39.21
23619;BME280;18207;32.078;34.818;2023-04-28T06:39:14;100574.50;;;28.39;38.99
23619;BME280;18207;32.078;34.818;2023-04-28T06:41:47;100578.94;;;28.40;39.08
23619;BME280;18207;32.078;34.818;2023-04-28T06:44:17;100575.72;;;28.42;39.40
23619;BME280;18207;32.078;34.818;2023-04-28T06:46:47;100576.16;;;28.44;39.34
23619;BME280;18207;32.078;34.818;2023-04-28T06:49:17;100585.47;;;28.48;39.27
23619;BME280;18207;32.078;34.818;2023-04-28T06:51:48;100588.69;;;28.50;39.08
23619;BME280;18207;32.078;34.818;2023-04-28T06:54:18;100594.41;;;28.53;39.43
23619;BME280;18207;32.078;34.818;2023-04-28T06:56:49;100594.03;;;28.58;39.05
23619;BME280;18207;32.078;34.818;2023-04-28T06:59:20;100600.09;;;28.60;39.17
23619;BME280;18207;32.078;34.818;2023-04-28T07:01:49;100596.50;;;28.63;39.27
23619;BME280;18207;32.078;34.818;2023-04-28T07:04:20;100597.72;;;28.65;39.39
23619;BME280;18207;32.078;34.818;2023-04-28T07:06:50;100599.72;;;28.68;39.44
23619;BME280;18207;32.078;34.818;2023-04-28T07:09:21;100595.75;;;28.73;39.29
23619;BME280;18207;32.078;34.818;2023-04-28T07:11:53;100599.41;;;28.77;39.04
23619;BME280;18207;32.078;34.818;2023-04-28T07:14:25;100589.31;;;28.79;39.17
23619;BME280;18207;32.078;34.818;2023-04-28T07:16:55;100590.59;;;28.82;39.09
23619;BME280;18207;32.078;34.818;2023-04-28T07:19:26;100594.22;;;28.86;38.86
23619;BME280;18207;32.078;34.818;2023-04-28T07:21:56;100604.75;;;28.89;38.95
23619;BME280;18207;32.078;34.818;2023-04-28T07:24:26;100606.81;;;28.92;38.84
23619;BME280;18207;32.078;34.818;2023-04-28T07:26:58;100601.97;;;28.96;38.85
23619;BME280;18207;32.078;34.818;2023-04-28T07:29:28;100601.19;;;28.99;38.94
23619;BME280;18207;32.078;34.818;2023-04-28T07:32:01;100587.47;;;29.01;38.94
23619;BME280;18207;32.078;34.818;2023-04-28T07:34:34;100606.44;;;29.04;38.72
23619;BME280;18207;32.078;34.818;2023-04-28T07:37:05;100615.00;;;29.07;38.74
23619;BME280;18207;32.078;34.818;2023-04-28T07:39:35;100608.13;;;29.12;39.02
23619;BME280;18207;32.078;34.818;2023-04-28T07:42:09;100605.31;;;29.15;38.48
23619;BME280;18207;32.078;34.818;2023-04-28T07:44:39;100602.50;;;29.19;38.57
23619;BME280;18207;32.078;34.818;2023-04-28T07:47:10;100601.31;;;29.23;38.65
23619;BME280;18207;32.078;34.818;2023-04-28T07:49:41;100606.56;;;29.28;38.56
23619;BME280;18207;32.078;34.818;2023-04-28T07:52:11;100598.91;;;29.32;38.65
23619;BME280;18207;32.078;34.818;2023-04-28T07:54:41;100605.84;;;29.38;38.87
23619;BME280;18207;32.078;34.818;2023-04-28T07:57:12;100600.59;;;29.44;38.55
23619;BME280;18207;32.078;34.818;2023-04-28T07:59:43;100594.94;;;29.47;38.71
23619;BME280;18207;32.078;34.818;2023-04-28T08:02:13;100600.66;;;29.51;38.40
23619;BME280;18207;32.078;34.818;2023-04-28T08:04:45;100609.94;;;29.54;38.20
23619;BME280;18207;32.078;34.818;2023-04-28T08:07:15;100612.00;;;29.57;38.39
23619;BME280;18207;32.078;34.818;2023-04-28T08:09:46;100604.69;;;29.60;38.67
23619;BME280;18207;32.078;34.818;2023-04-28T08:12:20;100609.97;;;29.61;38.12
23619;BME280;18207;32.078;34.818;2023-04-28T08:14:50;100604.31;;;29.65;38.22
23619;BME280;18207;32.078;34.818;2023-04-28T08:17:20;100601.88;;;29.67;37.85
23619;BME280;18207;32.078;34.818;2023-04-28T08:19:51;100615.25;;;29.70;37.90
23619;BME280;18207;32.078;34.818;2023-04-28T08:22:21;100610.78;;;29.72;38.04
23619;BME280;18207;32.078;34.818;2023-04-28T08:24:52;100608.38;;;29.74;38.03
23619;BME280;18207;32.078;34.818;2023-04-28T08:27:24;100599.09;;;29.77;37.74
23619;BME280;18207;32.078;34.818;2023-04-28T08:29:54;100599.88;;;29.78;37.63
23619;BME280;18207;32.078;34.818;2023-04-28T08:32:24;100601.94;;;29.81;37.84
23619;BME280;18207;32.078;34.818;2023-04-28T08:34:55;100618.50;;;29.82;37.78
23619;BME280;18207;32.078;34.818;2023-04-28T08:37:26;100605.19;;;29.86;37.85
23619;BME280;18207;32.078;34.818;2023-04-28T08:39:57;100603.56;;;29.89;37.20
23619;BME280;18207;32.078;34.818;2023-04-28T08:42:38;100599.91;;;29.92;37.46
23619;BME280;18207;32.078;34.818;2023-04-28T08:45:13;100603.59;;;29.96;37.67
23619;BME280;18207;32.078;34.818;2023-04-28T08:47:43;100600.78;;;29.99;37.65
23619;BME280;18207;32.078;34.818;2023-04-28T08:50:21;100600.78;;;30.03;37.05
23619;BME280;18207;32.078;34.818;2023-04-28T08:52:52;100599.56;;;30.04;37.76
23619;BME280;18207;32.078;34.818;2023-04-28T08:55:25;100609.28;;;30.06;37.04
23619;BME280;18207;32.078;34.818;2023-04-28T08:57:58;100610.50;;;30.09;37.51
23619;BME280;18207;32.078;34.818;2023-04-28T09:00:29;100610.50;;;30.12;37.37
23619;BME280;18207;32.078;34.818;2023-04-28T09:02:59;100605.66;;;30.13;37.33
23619;BME280;18207;32.078;34.818;2023-04-28T09:05:30;100608.06;;;30.14;37.26
23619;BME280;18207;32.078;34.818;2023-04-28T09:08:01;100608.91;;;30.15;37.21
23619;BME280;18207;32.078;34.818;2023-04-28T09:10:32;100606.44;;;30.17;36.99
23619;BME280;18207;32.078;34.818;2023-04-28T09:13:05;100607.28;;;30.17;37.19
23619;BME280;18207;32.078;34.818;2023-04-28T09:15:37;100606.06;;;30.18;37.37
23619;BME280;18207;32.078;34.818;2023-04-28T09:18:13;100610.53;;;30.19;37.65
23619;BME280;18207;32.078;34.818;2023-04-28T09:20:44;100604.84;;;30.19;37.35
23619;BME280;18207;32.078;34.818;2023-04-28T09:23:17;100610.53;;;30.23;37.41
23619;BME280;18207;32.078;34.818;2023-04-28T09:25:59;100619.03;;;30.23;36.79
23619;BME280;18207;32.078;34.818;2023-04-28T09:28:33;100620.66;;;30.24;37.10
23619;BME280;18207;32.078;34.818;2023-04-28T09:31:04;100610.09;;;30.24;37.11
23619;BME280;18207;32.078;34.818;2023-04-28T09:33:34;100610.94;;;30.25;37.07
23619;BME280;18207;32.078;34.818;2023-04-28T09:36:05;100606.84;;;30.26;36.84
23619;BME280;18207;32.078;34.818;2023-04-28T09:38:43;100613.75;;;30.28;36.81
23619;BME280;18207;32.078;34.818;2023-04-28T09:41:13;100606.88;;;30.29;37.04
23619;BME280;18207;32.078;34.818;2023-04-28T09:43:45;100610.91;;;30.32;36.86
23619;BME280;18207;32.078;34.818;2023-04-28T09:46:28;100616.19;;;30.33;36.32
23619;BME280;18207;32.078;34.818;2023-04-28T09:49:00;100612.53;;;30.33;37.11
23619;BME280;18207;32.078;34.818;2023-04-28T09:51:31;100602.00;;;30.33;36.50
23619;BME280;18207;32.078;34.818;2023-04-28T09:54:02;100612.53;;;30.33;36.34
23619;BME280;18207;32.078;34.818;2023-04-28T09:56:34;100605.66;;;30.34;36.67
23619;BME280;18207;32.078;34.818;2023-04-28T09:59:09;100620.63;;;30.34;36.81
23619;BME280;18207;32.078;34.818;2023-04-28T10:01:40;100614.97;;;30.34;36.71
23619;BME280;18207;32.078;34.818;2023-04-28T10:04:13;100608.09;;;30.35;36.21
23619;BME280;18207;32.078;34.818;2023-04-28T10:06:44;100612.13;;;30.34;36.02
23619;BME280;18207;32.078;34.818;2023-04-28T10:09:14;100614.16;;;30.34;36.24
23619;BME280;18207;32.078;34.818;2023-04-28T10:11:46;100624.69;;;30.33;36.14
23619;BME280;18207;32.078;34.818;2023-04-28T10:14:19;100608.88;;;30.32;36.15
23619;BME280;18207;32.078;34.818;2023-04-28T10:16:51;100622.66;;;30.30;35.60
23619;BME280;18207;32.078;34.818;2023-04-28T10:19:21;100612.13;;;30.27;36.02
23619;BME280;18207;32.078;34.818;2023-04-28T10:22:08;100612.94;;;30.24;35.61
23619;BME280;18207;32.078;34.818;2023-04-28T10:27:49;100611.31;;;30.16;36.02
23619;BME280;18207;32.078;34.818;2023-04-28T10:30:24;100618.19;;;30.15;35.86
23619;BME280;18207;32.078;34.818;2023-04-28T10:33:22;100627.13;;;30.14;35.69
23619;BME280;18207;32.078;34.818;2023-04-28T10:35:54;100634.38;;;30.11;35.76
23619;BME280;18207;32.078;34.818;2023-04-28T10:38:25;100626.28;;;30.10;35.87
23619;BME280;18207;32.078;34.818;2023-04-28T10:40:55;100631.97;;;30.10;35.99
23619;BME280;18207;32.078;34.818;2023-04-28T10:43:36;100624.66;;;30.09;35.56
23619;BME280;18207;32.078;34.818;2023-04-28T10:46:09;100635.22;;;30.08;35.73
23619;BME280;18207;32.078;34.818;2023-04-28T10:49:06;100623.47;;;30.06;35.81
23619;BME280;18207;32.078;34.818;2023-04-28T10:51:36;100623.88;;;30.05;35.56
23619;BME280;18207;32.078;34.818;2023-04-28T10:54:15;100626.72;;;30.05;35.93
23619;BME280;18207;32.078;34.818;2023-04-28T10:57:20;100636.44;;;30.04;35.79
23619;BME280;18207;32.078;34.818;2023-04-28T10:59:50;100629.13;;;30.03;35.79
23619;BME280;18207;32.078;34.818;2023-04-28T11:02:39;100639.63;;;30.02;35.63
23619;BME280;18207;32.078;34.818;2023-04-28T11:05:18;100634.81;;;30.03;35.51
23619;BME280;18207;32.078;34.818;2023-04-28T11:08:30;100633.59;;;30.04;35.92
23619;BME280;18207;32.078;34.818;2023-04-28T11:11:21;100638.06;;;30.05;35.54
23619;BME280;18207;32.078;34.818;2023-04-28T11:13:54;100626.72;;;30.05;35.82
23619;BME280;18207;32.078;34.818;2023-04-28T11:16:25;100622.25;;;30.07;35.57
23619;BME280;18207;32.078;34.818;2023-04-28T11:18:59;100624.66;;;30.09;35.29
23619;BME280;18207;32.078;34.818;2023-04-28T11:21:34;100615.38;;;30.08;35.38
23619;BME280;18207;32.078;34.818;2023-04-28T11:24:09;100625.09;;;30.07;35.29
23619;BME280;18207;32.078;34.818;2023-04-28T11:26:41;100625.09;;;30.07;34.77
23619;BME280;18207;32.078;34.818;2023-04-28T11:29:12;100624.25;;;30.07;34.70
23619;BME280;18207;32.078;34.818;2023-04-28T11:31:49;100621.84;;;30.05;34.72
23619;BME280;18207;32.078;34.818;2023-04-28T11:34:22;100627.09;;;30.03;35.03
23619;BME280;18207;32.078;34.818;2023-04-28T11:36:54;100625.47;;;30.02;34.81
23619;BME280;18207;32.078;34.818;2023-04-28T11:39:29;100616.59;;;30.00;34.68
23619;BME280;18207;32.078;34.818;2023-04-28T11:42:00;100628.72;;;29.97;35.04
23619;BME280;18207;32.078;34.818;2023-04-28T11:44:31;100624.66;;;29.95;35.09
23619;BME280;18207;32.078;34.818;2023-04-28T11:47:03;100618.16;;;29.94;34.68
23619;BME280;18207;32.078;34.818;2023-04-28T11:49:44;100618.56;;;29.93;34.90
23619;BME280;18207;32.078;34.818;2023-04-28T11:52:15;100609.63;;;29.91;34.65
23619;BME280;18207;32.078;34.818;2023-04-28T11:54:53;100611.25;;;29.92;34.56
23619;BME280;18207;32.078;34.818;2023-04-28T11:57:25;100616.09;;;29.91;35.03
23619;BME280;18207;32.078;34.818;2023-04-28T12:00:12;100623.41;;;29.89;34.67
23619;BME280;18207;32.078;34.818;2023-04-28T12:02:46;100623.38;;;29.85;34.90
23619;BME280;18207;32.078;34.818;2023-04-28T12:05:20;100614.09;;;29.85;34.66
23619;BME280;18207;32.078;34.818;2023-04-28T12:07:50;100613.25;;;29.84;34.58
23619;BME280;18207;32.078;34.818;2023-04-28T12:10:21;100616.09;;;29.84;34.78
23619;BME280;18207;32.078;34.818;2023-04-28T12:12:51;100622.59;;;29.85;34.67
23619;BME280;18207;32.078;34.818;2023-04-28T12:15:21;100610.44;;;29.84;34.85
23619;BME280;18207;32.078;34.818;2023-04-28T12:17:52;100608.81;;;29.83;34.28
23619;BME280;18207;32.078;34.818;2023-04-28T12:20:38;100615.69;;;29.82;34.56
23619;BME280;18207;32.078;34.818;2023-04-28T12:23:09;100616.50;;;29.79;34.92
23619;BME280;18207;32.078;34.818;2023-04-28T12:25:45;100613.66;;;29.79;34.85
23619;BME280;18207;32.078;34.818;2023-04-28T12:28:16;100625.00;;;29.76;34.91
23619;BME280;18207;32.078;34.818;2023-04-28T12:30:47;100612.84;;;29.75;34.52
23619;BME280;18207;32.078;34.818;2023-04-28T12:33:24;100601.91;;;29.74;34.47
23619;BME280;18207;32.078;34.818;2023-04-28T12:35:58;100603.94;;;29.73;34.75
23619;BME280;18207;32.078;34.818;2023-04-28T12:38:30;100599.47;;;29.72;34.88
23619;BME280;18207;32.078;34.818;2023-04-28T12:41:01;100604.34;;;29.72;34.52
23619;BME280;18207;32.078;34.818;2023-04-28T12:43:32;100604.75;;;29.70;34.63
23619;BME280;18207;32.078;34.818;2023-04-28T12:46:02;100603.91;;;29.70;35.05
23619;BME280;18207;32.078;34.818;2023-04-28T12:48:33;100608.38;;;29.67;34.47
23619;BME280;18207;32.078;34.818;2023-04-28T12:51:05;100610.38;;;29.67;34.95
23619;BME280;18207;32.078;34.818;2023-04-28T12:53:35;100612.81;;;29.65;34.96
23619;BME280;18207;32.078;34.818;2023-04-28T12:56:06;100620.13;;;29.66;34.67
23619;BME280;18207;32.078;34.818;2023-04-28T12:58:37;100614.03;;;29.64;34.92
23619;BME280;18207;32.078;34.818;2023-04-28T13:01:08;100616.44;;;29.62;35.14
23619;BME280;18207;32.078;34.818;2023-04-28T13:03:38;100608.38;;;29.60;34.80
23619;BME280;18207;32.078;34.818;2023-04-28T13:06:10;100602.28;;;29.58;34.71
23619;BME280;18207;32.078;34.818;2023-04-28T13:08:40;100612.41;;;29.56;34.86